createdAt,value
2019-03-18T00:00:35.195Z,31.10
2019-03-18T00:03:08.081Z,31.40
2019-03-18T00:05:40.860Z,31.50
2019-03-18T00:08:15.028Z,31.80
2019-03-18T00:10:47.898Z,32.00
2019-03-18T00:13:21.103Z,32.20
2019-03-18T00:15:53.881Z,32.30
2019-03-18T00:18:26.845Z,32.50
2019-03-18T00:20:59.642Z,32.60
2019-03-18T00:23:32.723Z,32.80
2019-03-18T00:26:05.387Z,32.70
2019-03-18T00:28:38.457Z,32.20
2019-03-18T00:31:11.040Z,31.80
2019-03-18T00:33:44.012Z,31.40
2019-03-18T00:36:16.749Z,31.40
2019-03-18T00:38:50.040Z,31.10
2019-03-18T00:41:22.729Z,30.60
2019-03-18T00:43:55.734Z,30.30
2019-03-18T00:46:28.504Z,30.60
2019-03-18T00:49:01.550Z,30.30
2019-03-18T00:51:34.459Z,30.10
2019-03-18T00:54:07.436Z,29.90
2019-03-18T00:56:40.029Z,29.70
2019-03-18T00:59:13.018Z,29.50
2019-03-18T01:01:45.788Z,29.30
2019-03-18T01:04:18.935Z,29.20
2019-03-18T01:06:51.760Z,29.00
2019-03-18T01:09:24.996Z,28.90
2019-03-18T01:11:58.821Z,28.90
2019-03-18T01:14:31.611Z,28.80
2019-03-18T01:17:04.195Z,28.90
2019-03-18T01:19:37.056Z,29.40
2019-03-18T01:22:09.697Z,29.70
2019-03-18T01:24:42.446Z,29.90
2019-03-18T01:27:15.464Z,29.80
2019-03-18T01:29:48.232Z,30.30
2019-03-18T01:32:21.735Z,30.20
2019-03-18T01:34:54.425Z,29.80
2019-03-18T01:37:27.378Z,29.40
2019-03-18T01:40:00.362Z,29.10
2019-03-18T01:42:33.402Z,28.70
2019-03-18T01:45:06.655Z,28.70
2019-03-18T01:47:39.783Z,28.90
2019-03-18T01:50:19.279Z,29.50
2019-03-18T01:52:52.383Z,29.70
2019-03-18T01:55:25.041Z,30.10
2019-03-18T01:57:58.100Z,30.50
2019-03-18T02:00:30.700Z,30.50
2019-03-18T02:03:04.232Z,30.90
2019-03-18T02:05:37.021Z,30.80
2019-03-18T02:08:09.971Z,30.40
2019-03-18T02:10:44.243Z,30.00
2019-03-18T02:13:17.218Z,29.70
2019-03-18T02:15:53.557Z,29.30
2019-03-18T02:18:24.034Z,29.00
2019-03-18T02:20:56.795Z,28.80
2019-03-18T02:23:29.704Z,28.60
2019-03-18T02:26:02.353Z,28.40
2019-03-18T02:28:35.773Z,28.20
2019-03-18T02:31:08.415Z,27.90
2019-03-18T02:33:41.582Z,27.80
2019-03-18T02:36:14.290Z,27.70
2019-03-18T02:38:47.248Z,27.70
2019-03-18T02:41:21.203Z,27.70
2019-03-18T02:43:54.046Z,27.70
2019-03-18T02:46:26.733Z,27.90
2019-03-18T02:48:59.830Z,28.80
2019-03-18T02:51:32.499Z,29.00
2019-03-18T02:54:05.623Z,29.70
2019-03-18T02:56:38.415Z,30.00
2019-03-18T02:59:11.818Z,30.00
2019-03-18T03:01:44.584Z,29.70
2019-03-18T03:04:17.653Z,29.90
2019-03-18T03:06:50.642Z,30.30
2019-03-18T03:09:23.725Z,30.60
2019-03-18T03:11:56.408Z,31.00
2019-03-18T03:14:29.174Z,31.20
2019-03-18T03:17:01.989Z,31.00
2019-03-18T03:19:35.049Z,30.60
2019-03-18T03:22:07.728Z,30.30
2019-03-18T03:24:41.111Z,29.90
2019-03-18T03:27:13.893Z,29.40
2019-03-18T03:29:46.822Z,29.00
2019-03-18T03:32:19.849Z,28.50
2019-03-18T03:34:52.657Z,28.00
2019-03-18T03:37:26.539Z,27.60
2019-03-18T03:39:59.375Z,27.30
2019-03-18T03:42:32.162Z,27.00
2019-03-18T03:45:05.903Z,26.70
2019-03-18T03:47:39.137Z,26.40
2019-03-18T03:50:13.512Z,26.20
2019-03-18T03:52:46.511Z,26.20
2019-03-18T03:55:19.614Z,26.30
2019-03-18T03:57:52.536Z,26.20
2019-03-18T04:00:26.519Z,26.10
2019-03-18T04:02:59.570Z,26.10
2019-03-18T04:05:32.159Z,26.10
2019-03-18T04:08:05.093Z,26.00
2019-03-18T04:10:37.849Z,25.90
2019-03-18T04:13:10.819Z,25.70
2019-03-18T04:15:43.520Z,25.60
2019-03-18T04:18:17.784Z,25.50
2019-03-18T04:20:50.851Z,25.30
2019-03-18T04:23:23.831Z,25.20
2019-03-18T04:25:57.369Z,25.10
2019-03-18T04:28:31.523Z,25.00
2019-03-18T04:31:04.650Z,24.90
2019-03-18T04:33:39.338Z,24.80
2019-03-18T04:36:12.677Z,24.70
2019-03-18T04:38:45.773Z,24.70
2019-03-18T04:41:18.702Z,24.70
2019-03-18T04:43:52.095Z,24.70
2019-03-18T04:46:24.921Z,24.60
2019-03-18T04:48:58.016Z,24.50
2019-03-18T04:51:31.148Z,24.50
2019-03-18T04:54:05.106Z,24.40
2019-03-18T04:56:39.396Z,24.50
2019-03-18T04:59:13.420Z,24.50
2019-03-18T05:01:46.195Z,24.40
2019-03-18T05:04:19.898Z,24.40
2019-03-18T05:06:52.727Z,24.40
2019-03-18T05:09:25.634Z,24.40
2019-03-18T05:12:00.312Z,24.40
2019-03-18T05:14:34.546Z,24.30
2019-03-18T05:17:07.655Z,24.30
2019-03-18T05:19:40.596Z,24.30
2019-03-18T05:22:13.659Z,24.30
2019-03-18T05:24:47.788Z,24.30
2019-03-18T05:27:20.581Z,24.20
2019-03-18T05:29:53.849Z,24.10
2019-03-18T05:32:26.538Z,24.10
2019-03-18T05:34:59.544Z,24.00
2019-03-18T05:37:32.536Z,24.00
2019-03-18T05:40:05.597Z,23.90
2019-03-18T05:42:38.334Z,23.90
2019-03-18T05:45:13.623Z,23.80
2019-03-18T05:47:46.428Z,23.70
2019-03-18T05:50:20.456Z,23.70
2019-03-18T05:52:54.874Z,23.60
2019-03-18T05:55:28.489Z,23.60
2019-03-18T05:58:01.465Z,23.50
2019-03-18T06:00:34.311Z,23.50
2019-03-18T06:03:07.803Z,23.50
2019-03-18T06:05:41.697Z,23.50
2019-03-18T06:08:14.942Z,23.40
2019-03-18T06:10:47.784Z,23.40
2019-03-18T06:13:21.788Z,23.30
2019-03-18T06:15:54.827Z,23.20
2019-03-18T06:18:29.384Z,23.10
2019-03-18T06:21:03.202Z,23.00
2019-03-18T06:23:35.902Z,22.90
2019-03-18T06:26:09.291Z,22.80
2019-03-18T06:28:42.306Z,22.60
2019-03-18T06:31:15.930Z,22.40
2019-03-18T06:33:48.814Z,22.30
2019-03-18T06:36:22.256Z,22.20
2019-03-18T06:38:55.144Z,22.20
2019-03-18T06:41:28.384Z,22.10
2019-03-18T06:44:01.572Z,22.10
2019-03-18T06:46:35.459Z,22.10
2019-03-18T06:49:08.860Z,22.00
2019-03-18T06:51:42.575Z,21.90
2019-03-18T06:54:16.108Z,21.80
2019-03-18T06:56:49.351Z,21.70
2019-03-18T06:59:22.536Z,21.60
2019-03-18T07:01:55.442Z,21.60
2019-03-18T07:04:28.636Z,21.60
2019-03-18T07:07:01.186Z,21.60
2019-03-18T07:09:34.541Z,21.50
2019-03-18T07:12:08.168Z,21.50
2019-03-18T07:14:43.381Z,21.40
2019-03-18T07:17:16.485Z,21.50
2019-03-18T07:19:49.475Z,21.50
2019-03-18T07:22:22.171Z,21.50
2019-03-18T07:24:55.325Z,21.50
2019-03-18T07:27:28.178Z,21.50
2019-03-18T07:30:01.442Z,21.60
2019-03-18T07:32:34.399Z,21.50
2019-03-18T07:35:08.850Z,21.60
2019-03-18T07:37:41.995Z,21.60
2019-03-18T07:40:20.789Z,21.50
2019-03-18T07:42:54.758Z,21.50
2019-03-18T07:45:27.443Z,21.50
2019-03-18T07:48:01.801Z,21.40
2019-03-18T07:50:34.833Z,21.40
2019-03-18T07:53:08.291Z,21.40
2019-03-18T07:55:41.597Z,21.40
2019-03-18T07:58:14.547Z,21.30
2019-03-18T08:00:47.111Z,21.30
2019-03-18T08:03:20.191Z,21.30
2019-03-18T08:05:52.969Z,21.30
2019-03-18T08:08:26.361Z,21.30
2019-03-18T08:10:59.101Z,21.40
2019-03-18T08:13:33.240Z,21.40
2019-03-18T08:16:06.665Z,21.30
2019-03-18T08:18:43.480Z,21.30
2019-03-18T08:21:13.858Z,21.30
2019-03-18T08:23:47.798Z,21.30
2019-03-18T08:26:20.779Z,21.20
2019-03-18T08:28:54.573Z,21.20
2019-03-18T08:31:27.783Z,21.20
2019-03-18T08:34:00.441Z,21.30
2019-03-18T08:36:34.347Z,21.30
2019-03-18T08:39:08.095Z,21.30
2019-03-18T08:41:41.210Z,21.30
2019-03-18T08:44:13.943Z,21.30
2019-03-18T08:46:46.935Z,21.30
2019-03-18T08:49:19.790Z,21.30
2019-03-18T08:51:52.821Z,21.30
2019-03-18T08:54:25.541Z,21.30
2019-03-18T08:56:59.707Z,21.30
2019-03-18T08:59:33.615Z,21.30
2019-03-18T09:02:06.931Z,21.30
2019-03-18T09:04:39.746Z,21.40
2019-03-18T09:07:13.036Z,21.40
2019-03-18T09:09:45.690Z,21.40
2019-03-18T09:12:18.730Z,21.40
2019-03-18T09:14:52.025Z,21.40
2019-03-18T09:17:25.691Z,21.40
2019-03-18T09:19:58.466Z,21.40
2019-03-18T09:22:31.356Z,21.40
2019-03-18T09:25:05.611Z,21.40
2019-03-18T09:27:38.376Z,21.40
2019-03-18T09:30:13.509Z,21.40
2019-03-18T09:32:46.183Z,21.40
2019-03-18T09:35:19.220Z,21.40
2019-03-18T09:37:51.903Z,21.40
2019-03-18T09:40:25.153Z,21.40
2019-03-18T09:42:58.187Z,21.40
2019-03-18T09:45:31.234Z,21.40
2019-03-18T09:48:03.987Z,21.40
2019-03-18T09:50:37.095Z,21.30
2019-03-18T09:53:10.354Z,21.40
2019-03-18T09:55:43.265Z,21.30
2019-03-18T09:58:16.327Z,21.30
2019-03-18T10:00:49.277Z,21.30
2019-03-18T10:03:22.397Z,21.30
2019-03-18T10:05:55.578Z,21.30
2019-03-18T10:08:28.364Z,21.30
2019-03-18T10:11:01.594Z,21.30
2019-03-18T10:13:34.591Z,21.40
2019-03-18T10:16:07.778Z,21.30
2019-03-18T10:18:40.980Z,21.40
2019-03-18T10:21:14.018Z,21.40
2019-03-18T10:23:47.093Z,21.40
2019-03-18T10:26:19.997Z,21.40
2019-03-18T10:28:53.068Z,21.40
2019-03-18T10:31:26.006Z,21.40
2019-03-18T10:33:58.845Z,21.40
2019-03-18T10:36:31.526Z,21.40
2019-03-18T10:39:04.460Z,21.50
2019-03-18T10:41:37.286Z,21.50
2019-03-18T10:44:10.434Z,21.40
2019-03-18T10:46:43.476Z,21.50
2019-03-18T10:49:16.815Z,21.40
2019-03-18T10:51:49.754Z,21.40
2019-03-18T10:54:30.759Z,21.40
2019-03-18T10:56:56.651Z,21.40
2019-03-18T10:59:29.518Z,21.40
2019-03-18T11:02:02.151Z,21.40
2019-03-18T11:04:35.403Z,21.40
2019-03-18T11:07:08.193Z,21.40
2019-03-18T11:09:41.462Z,21.40
2019-03-18T11:12:14.054Z,21.40
2019-03-18T11:14:47.086Z,21.40
2019-03-18T11:17:20.598Z,21.40
2019-03-18T11:19:58.775Z,21.40
2019-03-18T11:22:29.273Z,21.40
2019-03-18T11:25:04.448Z,21.40
2019-03-18T11:28:38.574Z,21.40
2019-03-18T11:31:11.766Z,21.40
2019-03-18T11:33:45.081Z,21.40
2019-03-18T11:36:17.937Z,21.40
2019-03-18T11:38:50.930Z,21.40
2019-03-18T11:41:23.916Z,21.40
2019-03-18T11:43:57.245Z,21.40
2019-03-18T11:46:29.925Z,21.40
2019-03-18T11:49:03.861Z,21.40
2019-03-18T11:51:36.629Z,21.40
2019-03-18T11:54:09.742Z,21.40
2019-03-18T11:56:42.523Z,21.40
2019-03-18T11:59:15.521Z,21.40
2019-03-18T12:01:48.373Z,21.40
2019-03-18T12:04:21.533Z,21.40
2019-03-18T12:06:54.435Z,21.40
2019-03-18T12:09:27.615Z,21.40
2019-03-18T12:12:00.369Z,21.40
2019-03-18T12:14:33.419Z,21.40
2019-03-18T12:17:06.192Z,21.30
2019-03-18T12:19:39.607Z,21.30
2019-03-18T12:22:13.340Z,21.40
2019-03-18T12:24:46.390Z,21.40
2019-03-18T12:27:19.199Z,21.40
2019-03-18T12:29:52.102Z,21.40
2019-03-18T12:32:25.078Z,21.40
2019-03-18T12:34:58.137Z,21.40
2019-03-18T12:37:30.908Z,21.40
2019-03-18T12:40:04.171Z,21.30
2019-03-18T12:42:36.741Z,21.30
2019-03-18T12:45:19.792Z,21.30
2019-03-18T12:47:52.492Z,21.30
2019-03-18T12:50:49.295Z,21.30
2019-03-18T12:53:00.707Z,21.30
2019-03-18T12:55:33.791Z,21.30
2019-03-18T12:58:06.358Z,21.30
2019-03-18T13:00:40.736Z,21.20
2019-03-18T13:03:13.594Z,21.20
2019-03-18T13:05:46.471Z,21.20
2019-03-18T13:08:19.469Z,21.20
2019-03-18T13:10:52.438Z,21.10
2019-03-18T13:13:25.170Z,21.10
2019-03-18T13:15:58.241Z,21.10
2019-03-18T13:18:30.983Z,21.20
2019-03-18T13:21:08.079Z,21.20
2019-03-18T13:23:38.949Z,21.10
2019-03-18T13:26:11.585Z,21.20
2019-03-18T13:28:44.920Z,21.10
2019-03-18T13:31:17.823Z,21.10
2019-03-18T13:33:50.745Z,21.10
2019-03-18T13:36:25.527Z,21.10
2019-03-18T13:38:58.458Z,21.10
2019-03-18T13:41:31.164Z,21.10
2019-03-18T13:44:04.122Z,21.10
2019-03-18T13:46:37.005Z,21.10
2019-03-18T13:49:10.053Z,21.10
2019-03-18T13:51:42.679Z,21.10
2019-03-18T13:54:15.759Z,21.10
2019-03-18T13:56:48.539Z,21.10
2019-03-18T13:59:21.664Z,21.10
2019-03-18T14:01:54.426Z,21.10
2019-03-18T14:04:27.910Z,21.10
2019-03-18T14:07:00.594Z,21.10
2019-03-18T14:09:33.579Z,21.10
2019-03-18T14:12:06.467Z,21.00
2019-03-18T14:14:39.941Z,21.00
2019-03-18T14:17:12.748Z,20.90
2019-03-18T14:19:45.648Z,20.70
2019-03-18T14:22:18.357Z,20.50
2019-03-18T14:24:52.748Z,20.40
2019-03-18T14:27:25.489Z,20.40
2019-03-18T14:29:58.853Z,20.40
2019-03-18T14:32:31.588Z,20.40
2019-03-18T14:35:04.713Z,20.40
2019-03-18T14:37:37.817Z,20.40
2019-03-18T14:40:18.838Z,20.40
2019-03-18T14:42:52.138Z,20.40
2019-03-18T14:45:25.040Z,20.40
2019-03-18T14:47:58.017Z,20.40
2019-03-18T14:50:30.790Z,20.40
2019-03-18T14:53:03.994Z,20.40
2019-03-18T14:55:37.346Z,20.40
2019-03-18T14:58:10.509Z,20.40
2019-03-18T15:00:43.226Z,20.40
2019-03-18T15:03:16.028Z,20.40
2019-03-18T15:05:49.359Z,20.40
2019-03-18T15:08:22.256Z,20.40
2019-03-18T15:10:55.308Z,20.40
2019-03-18T15:13:31.172Z,20.30
2019-03-18T15:16:02.936Z,20.30
2019-03-18T15:18:35.441Z,20.40
2019-03-18T15:21:08.497Z,20.30
2019-03-18T15:23:41.596Z,20.40
2019-03-18T15:26:14.693Z,20.30
2019-03-18T15:28:54.951Z,20.30
2019-03-18T15:31:28.762Z,20.30
2019-03-18T15:34:01.917Z,20.30
2019-03-18T15:36:34.587Z,20.30
2019-03-18T15:39:08.689Z,20.30
2019-03-18T15:41:41.786Z,20.30
2019-03-18T15:44:14.679Z,20.30
2019-03-18T15:46:47.363Z,20.40
2019-03-18T15:49:20.646Z,20.40
2019-03-18T15:51:53.689Z,20.40
2019-03-18T15:54:26.714Z,20.40
2019-03-18T15:56:59.507Z,20.40
2019-03-18T15:59:33.085Z,20.40
2019-03-18T16:02:06.187Z,20.40
2019-03-18T16:04:40.227Z,20.40
2019-03-18T16:07:12.756Z,20.40
2019-03-18T16:09:46.016Z,20.40
2019-03-18T16:12:19.003Z,20.40
2019-03-18T16:14:52.655Z,20.40
2019-03-18T16:17:25.623Z,20.40
2019-03-18T16:19:58.624Z,20.40
2019-03-18T16:22:33.084Z,20.40
2019-03-18T16:25:06.058Z,20.40
2019-03-18T16:27:39.028Z,20.40
2019-03-18T16:30:19.290Z,20.30
2019-03-18T16:32:53.335Z,20.30
2019-03-18T16:35:26.170Z,20.30
2019-03-18T16:37:59.191Z,20.20
2019-03-18T16:40:32.566Z,20.20
2019-03-18T16:43:05.548Z,20.20
2019-03-18T16:45:38.424Z,20.20
2019-03-18T16:48:11.497Z,20.20
2019-03-18T16:50:44.871Z,20.20
2019-03-18T16:53:20.787Z,20.20
2019-03-18T16:55:52.403Z,20.30
2019-03-18T16:58:25.822Z,20.20
2019-03-18T17:00:59.138Z,20.20
2019-03-18T17:03:32.163Z,20.20
2019-03-18T17:06:05.422Z,20.20
2019-03-18T17:08:38.090Z,20.20
2019-03-18T17:11:11.153Z,20.20
2019-03-18T17:13:43.954Z,20.20
2019-03-18T17:16:16.927Z,20.20
2019-03-18T17:18:49.623Z,20.20
2019-03-18T17:21:22.630Z,20.20
2019-03-18T17:23:55.510Z,20.20
2019-03-18T17:26:28.417Z,20.20
2019-03-18T17:29:01.149Z,20.20
2019-03-18T17:31:34.555Z,20.20
2019-03-18T17:34:07.681Z,20.20
2019-03-18T17:36:40.805Z,20.10
2019-03-18T17:39:14.656Z,20.10
2019-03-18T17:41:48.741Z,20.10
2019-03-18T17:44:22.032Z,20.10
2019-03-18T17:46:54.616Z,20.10
2019-03-18T17:49:27.559Z,20.10
2019-03-18T17:52:00.294Z,20.10
2019-03-18T17:54:33.286Z,20.10
2019-03-18T17:57:07.402Z,20.10
2019-03-18T17:59:40.278Z,20.10
2019-03-18T18:02:13.472Z,20.00
2019-03-18T18:04:46.658Z,20.00
2019-03-18T18:07:19.656Z,20.00
2019-03-18T18:09:52.638Z,20.00
2019-03-18T18:12:25.623Z,20.00
2019-03-18T18:14:59.081Z,20.00
2019-03-18T18:17:32.080Z,20.00
2019-03-18T18:20:04.655Z,20.00
2019-03-18T18:22:37.600Z,20.00
2019-03-18T18:25:14.007Z,20.00
2019-03-18T18:27:47.211Z,20.00
2019-03-18T18:30:21.158Z,20.00
2019-03-18T18:32:54.144Z,20.00
2019-03-18T18:35:26.785Z,20.00
2019-03-18T18:37:59.649Z,20.00
2019-03-18T18:40:32.622Z,20.00
2019-03-18T18:43:06.536Z,20.00
2019-03-18T18:45:39.353Z,20.00
2019-03-18T18:48:12.360Z,20.00
2019-03-18T18:50:45.116Z,20.00
2019-03-18T18:53:26.343Z,20.00
2019-03-18T18:55:51.985Z,20.00
2019-03-18T18:58:24.815Z,20.00
2019-03-18T19:00:57.755Z,20.00
2019-03-18T19:03:30.579Z,20.00
2019-03-18T19:06:03.592Z,20.00
2019-03-18T19:08:36.244Z,20.00
2019-03-18T19:11:08.975Z,20.00
2019-03-18T19:13:41.804Z,20.10
2019-03-18T19:16:14.664Z,20.10
2019-03-18T19:18:47.391Z,20.10
2019-03-18T19:21:20.868Z,20.10
2019-03-18T19:23:53.804Z,20.10
2019-03-18T19:26:26.853Z,20.10
2019-03-18T19:28:59.628Z,20.10
2019-03-18T19:31:32.510Z,20.10
2019-03-18T19:34:05.276Z,20.10
2019-03-18T19:36:38.271Z,20.10
2019-03-18T19:39:11.048Z,20.10
2019-03-18T19:41:43.821Z,20.10
2019-03-18T19:44:16.867Z,20.10
2019-03-18T19:46:49.594Z,20.10
2019-03-18T19:49:22.584Z,20.20
2019-03-18T19:51:55.503Z,20.10
2019-03-18T19:54:28.635Z,20.20
2019-03-18T19:57:01.356Z,20.20
2019-03-18T19:59:34.204Z,20.20
2019-03-18T20:02:06.906Z,20.20
2019-03-18T20:04:40.107Z,20.10
2019-03-18T20:07:13.019Z,20.10
2019-03-18T20:09:46.019Z,20.10
2019-03-18T20:12:18.649Z,20.00
2019-03-18T20:14:51.624Z,20.10
2019-03-18T20:17:24.408Z,20.10
2019-03-18T20:19:57.266Z,20.10
2019-03-18T20:22:29.971Z,20.10
2019-03-18T20:25:03.008Z,20.10
2019-03-18T20:27:35.874Z,20.10
2019-03-18T20:30:10.990Z,20.10
2019-03-18T20:32:43.780Z,20.10
2019-03-18T20:35:20.971Z,20.20
2019-03-18T20:37:53.935Z,20.20
2019-03-18T20:40:26.826Z,20.20
2019-03-18T20:42:59.706Z,20.20
2019-03-18T20:45:32.564Z,20.30
2019-03-18T20:48:05.655Z,20.30
2019-03-18T20:50:38.391Z,20.30
2019-03-18T20:53:11.370Z,20.40
2019-03-18T20:55:44.454Z,20.40
2019-03-18T20:58:17.409Z,20.40
2019-03-18T21:00:52.815Z,20.40
2019-03-18T21:03:25.255Z,20.40
2019-03-18T21:05:58.327Z,20.40
2019-03-18T21:08:31.234Z,20.40
2019-03-18T21:11:03.789Z,20.40
2019-03-18T21:13:37.208Z,20.40
2019-03-18T21:16:09.729Z,20.40
2019-03-18T21:18:44.132Z,20.40
2019-03-18T21:21:17.250Z,20.40
2019-03-18T21:23:52.803Z,20.40
2019-03-18T21:26:24.126Z,20.40
2019-03-18T21:28:56.942Z,20.40
2019-03-18T21:31:29.631Z,20.30
2019-03-18T21:34:03.302Z,20.30
2019-03-18T21:36:38.146Z,20.30
2019-03-18T21:39:11.090Z,20.20
2019-03-18T21:41:44.970Z,20.30
2019-03-18T21:44:17.642Z,20.30
2019-03-18T21:46:51.120Z,20.20
2019-03-18T21:49:23.808Z,20.20
2019-03-18T21:51:56.772Z,20.20
2019-03-18T21:54:34.025Z,20.10
2019-03-18T21:57:03.561Z,20.10
2019-03-18T21:59:36.253Z,20.00
2019-03-18T22:02:08.962Z,20.00
2019-03-18T22:04:41.772Z,20.00
2019-03-18T22:07:14.811Z,20.10
2019-03-18T22:09:47.486Z,20.20
2019-03-18T22:12:20.327Z,20.30
2019-03-18T22:14:53.054Z,20.40
2019-03-18T22:17:25.868Z,20.60
2019-03-18T22:19:58.632Z,20.70
2019-03-18T22:22:31.395Z,20.70
2019-03-18T22:25:04.308Z,20.80
2019-03-18T22:27:36.999Z,20.80
2019-03-18T22:30:12.015Z,20.90
2019-03-18T22:32:46.150Z,20.90
2019-03-18T22:35:19.238Z,21.00
2019-03-18T22:37:51.988Z,21.00
2019-03-18T22:40:24.873Z,21.00
2019-03-18T22:42:57.756Z,21.10
2019-03-18T22:45:30.840Z,21.10
2019-03-18T22:48:03.728Z,21.00
2019-03-18T22:50:37.757Z,21.00
2019-03-18T22:53:10.632Z,21.00
2019-03-18T22:55:43.497Z,21.00
2019-03-18T22:58:19.261Z,20.90
2019-03-18T23:00:52.326Z,20.90
2019-03-18T23:03:25.130Z,20.80
2019-03-18T23:05:57.906Z,20.80
2019-03-18T23:08:30.909Z,20.70
2019-03-18T23:11:03.557Z,20.70
2019-03-18T23:13:36.497Z,20.70
2019-03-18T23:16:09.839Z,20.60
2019-03-18T23:18:42.691Z,20.60
2019-03-18T23:21:16.451Z,20.60
2019-03-18T23:23:49.257Z,20.60
2019-03-18T23:26:22.768Z,20.60
2019-03-18T23:28:55.638Z,20.60
2019-03-18T23:31:28.405Z,20.60
2019-03-18T23:34:01.934Z,20.60
2019-03-18T23:36:34.770Z,20.50
2019-03-18T23:39:09.160Z,20.50
2019-03-18T23:41:41.749Z,20.50
2019-03-18T23:44:15.325Z,20.40
2019-03-18T23:46:48.229Z,20.40
2019-03-18T23:49:21.131Z,20.40
2019-03-18T23:51:53.958Z,20.50
2019-03-18T23:54:26.892Z,20.50
2019-03-18T23:56:59.719Z,20.50
2019-03-18T23:59:32.604Z,20.50
